sensor_id;sensor_type;location;lat;lon;timestamp;pressure;altitude;pressure_sealevel;temperature;humidity
15750;BME280;7976;52.526;13.326;2023-05-01T00:02:11;101683.34;;;10.60;59.15
15750;BME280;7976;52.526;13.326;2023-05-01T00:04:38;101681.66;;;10.57;59.06
15750;BME280;7976;52.526;13.326;2023-05-01T00:07:05;101691.31;;;10.54;59.36
15750;BME280;7976;52.526;13.326;2023-05-01T00:09:31;101679.19;;;10.51;59.32
15750;BME280;7976;52.526;13.326;2023-05-01T00:11:58;101685.38;;;10.47;59.15
15750;BME280;7976;52.526;13.326;2023-05-01T00:14:29;101688.16;;;10.40;59.19
15750;BME280;7976;52.526;13.326;2023-05-01T00:16:56;101685.66;;;10.34;59.58
15750;BME280;7976;52.526;13.326;2023-05-01T00:19:22;101678.78;;;10.30;59.73
15750;BME280;7976;52.526;13.326;2023-05-01T00:21:49;101684.94;;;10.26;59.96
15750;BME280;7976;52.526;13.326;2023-05-01T00:24:17;101685.03;;;10.23;60.17
15750;BME280;7976;52.526;13.326;2023-05-01T00:26:44;101672.84;;;10.20;60.18
15750;BME280;7976;52.526;13.326;2023-05-01T00:29:11;101677.25;;;10.20;60.18
15750;BME280;7976;52.526;13.326;2023-05-01T00:31:40;101672.09;;;10.15;60.24
15750;BME280;7976;52.526;13.326;2023-05-01T00:34:08;101667.81;;;10.11;60.49
15750;BME280;7976;52.526;13.326;2023-05-01T00:36:35;101673.97;;;10.07;60.67
15750;BME280;7976;52.526;13.326;2023-05-01T00:39:02;101667.91;;;10.05;60.64
15750;BME280;7976;52.526;13.326;2023-05-01T00:41:29;101667.06;;;10.03;60.97
15750;BME280;7976;52.526;13.326;2023-05-01T00:43:56;101667.13;;;10.00;61.12
15750;BME280;7976;52.526;13.326;2023-05-01T00:46:23;101667.16;;;9.98;61.38
15750;BME280;7976;52.526;13.326;2023-05-01T00:48:52;101664.53;;;9.98;61.12
15750;BME280;7976;52.526;13.326;2023-05-01T00:51:20;101654.97;;;9.99;61.16
15750;BME280;7976;52.526;13.326;2023-05-01T00:53:47;101651.44;;;10.00;61.23
15750;BME280;7976;52.526;13.326;2023-05-01T00:56:14;101651.47;;;9.98;61.25
15750;BME280;7976;52.526;13.326;2023-05-01T00:58:43;101652.31;;;10.00;61.20
15750;BME280;7976;52.526;13.326;2023-05-01T01:01:11;101644.47;;;10.00;61.27
15750;BME280;7976;52.526;13.326;2023-05-01T01:03:38;101646.22;;;10.00;61.29
15750;BME280;7976;52.526;13.326;2023-05-01T01:06:14;101638.41;;;9.98;61.50
15750;BME280;7976;52.526;13.326;2023-05-01T01:08:54;101648.00;;;9.98;61.48
15750;BME280;7976;52.526;13.326;2023-05-01T01:11:34;101642.78;;;9.96;61.42
15750;BME280;7976;52.526;13.326;2023-05-01T01:14:12;101639.31;;;9.97;61.67
15750;BME280;7976;52.526;13.326;2023-05-01T01:16:48;101641.03;;;9.97;61.96
15750;BME280;7976;52.526;13.326;2023-05-01T01:19:52;101642.78;;;9.96;61.72
15750;BME280;7976;52.526;13.326;2023-05-01T01:22:25;101640.19;;;9.96;61.60
15750;BME280;7976;52.526;13.326;2023-05-01T01:25:21;101645.44;;;9.95;61.58
15750;BME280;7976;52.526;13.326;2023-05-01T01:28:26;101636.00;;;9.89;61.73
15750;BME280;7976;52.526;13.326;2023-05-01T01:31:12;101634.25;;;9.88;61.83
15750;BME280;7976;52.526;13.326;2023-05-01T01:33:58;101628.19;;;9.86;61.93
15750;BME280;7976;52.526;13.326;2023-05-01T01:36:38;101635.22;;;9.84;62.09
15750;BME280;7976;52.526;13.326;2023-05-01T01:39:15;101638.63;;;9.86;61.93
15750;BME280;7976;52.526;13.326;2023-05-01T01:41:51;101629.94;;;9.87;62.03
15750;BME280;7976;52.526;13.326;2023-05-01T01:44:29;101626.41;;;9.88;62.23
15750;BME280;7976;52.526;13.326;2023-05-01T01:47:04;101626.34;;;9.91;62.40
15750;BME280;7976;52.526;13.326;2023-05-01T01:49:40;101628.91;;;9.94;62.54
15750;BME280;7976;52.526;13.326;2023-05-01T01:52:11;101623.69;;;9.93;62.68
15750;BME280;7976;52.526;13.326;2023-05-01T01:54:48;101614.13;;;9.92;62.74
15750;BME280;7976;52.526;13.326;2023-05-01T01:57:20;101619.41;;;9.90;62.82
15750;BME280;7976;52.526;13.326;2023-05-01T01:59:48;101614.25;;;9.87;62.63
15750;BME280;7976;52.526;13.326;2023-05-01T02:02:18;101612.56;;;9.83;62.66
15750;BME280;7976;52.526;13.326;2023-05-01T02:04:47;101612.63;;;9.80;62.77
15750;BME280;7976;52.526;13.326;2023-05-01T02:07:18;101606.66;;;9.74;62.81
15750;BME280;7976;52.526;13.326;2023-05-01T02:09:47;101601.50;;;9.71;62.95
15750;BME280;7976;52.526;13.326;2023-05-01T02:12:18;101608.50;;;9.69;63.11
15750;BME280;7976;52.526;13.326;2023-05-01T02:14:47;101607.72;;;9.65;63.11
15750;BME280;7976;52.526;13.326;2023-05-01T02:17:17;101597.38;;;9.58;63.19
15750;BME280;7976;52.526;13.326;2023-05-01T02:19:49;101601.00;;;9.52;63.44
15750;BME280;7976;52.526;13.326;2023-05-01T02:22:19;101604.44;;;9.54;63.44
15750;BME280;7976;52.526;13.326;2023-05-01T02:24:48;101599.22;;;9.54;63.41
15750;BME280;7976;52.526;13.326;2023-05-01T02:27:19;101593.97;;;9.56;63.39
15750;BME280;7976;52.526;13.326;2023-05-01T02:29:50;101587.91;;;9.54;63.60
15750;BME280;7976;52.526;13.326;2023-05-01T02:32:18;101582.75;;;9.51;63.36
15750;BME280;7976;52.526;13.326;2023-05-01T02:34:46;101581.94;;;9.47;63.58
15750;BME280;7976;52.526;13.326;2023-05-01T02:37:14;101586.34;;;9.44;63.40
15750;BME280;7976;52.526;13.326;2023-05-01T02:39:42;101574.22;;;9.40;63.54
15750;BME280;7976;52.526;13.326;2023-05-01T02:42:14;101578.66;;;9.36;63.54
15750;BME280;7976;52.526;13.326;2023-05-01T02:44:47;101572.63;;;9.33;63.72
15750;BME280;7976;52.526;13.326;2023-05-01T02:47:19;101571.78;;;9.32;63.63
15750;BME280;7976;52.526;13.326;2023-05-01T02:49:50;101574.41;;;9.31;63.70
15750;BME280;7976;52.526;13.326;2023-05-01T02:52:19;101566.63;;;9.29;63.77
15750;BME280;7976;52.526;13.326;2023-05-01T02:54:50;101564.94;;;9.25;63.45
15750;BME280;7976;52.526;13.326;2023-05-01T02:57:17;101565.00;;;9.22;63.32
15750;BME280;7976;52.526;13.326;2023-05-01T02:59:45;101560.69;;;9.20;63.25
15750;BME280;7976;52.526;13.326;2023-05-01T03:02:12;101565.09;;;9.16;63.33
15750;BME280;7976;52.526;13.326;2023-05-01T03:04:40;101553.00;;;9.12;63.29
15750;BME280;7976;52.526;13.326;2023-05-01T03:07:09;101547.84;;;9.08;63.14
15750;BME280;7976;52.526;13.326;2023-05-01T03:09:36;101548.78;;;9.05;63.62
15750;BME280;7976;52.526;13.326;2023-05-01T03:12:03;101543.59;;;9.04;63.59
15750;BME280;7976;52.526;13.326;2023-05-01T03:14:30;101538.38;;;9.04;63.55
15750;BME280;7976;52.526;13.326;2023-05-01T03:16:57;101539.25;;;9.01;63.73
15750;BME280;7976;52.526;13.326;2023-05-01T03:19:24;101533.22;;;8.99;63.77
15750;BME280;7976;52.526;13.326;2023-05-01T03:21:51;101531.47;;;9.00;63.55
15750;BME280;7976;52.526;13.326;2023-05-01T03:24:19;101536.69;;;9.00;63.53
15750;BME280;7976;52.526;13.326;2023-05-01T03:26:46;101528.00;;;8.99;63.62
15750;BME280;7976;52.526;13.326;2023-05-01T03:29:13;101532.41;;;8.97;63.50
15750;BME280;7976;52.526;13.326;2023-05-01T03:31:40;101531.63;;;8.92;63.68
15750;BME280;7976;52.526;13.326;2023-05-01T03:34:08;101533.34;;;8.92;63.55
15750;BME280;7976;52.526;13.326;2023-05-01T03:36:35;101534.22;;;8.92;63.40
15750;BME280;7976;52.526;13.326;2023-05-01T03:39:03;101529.91;;;8.89;63.55
15750;BME280;7976;52.526;13.326;2023-05-01T03:42:04;101521.25;;;8.89;63.29
15750;BME280;7976;52.526;13.326;2023-05-01T03:44:37;101534.25;;;8.91;63.12
15750;BME280;7976;52.526;13.326;2023-05-01T03:47:04;101525.56;;;8.90;63.27
15750;BME280;7976;52.526;13.326;2023-05-01T03:49:32;101519.47;;;8.89;63.44
15750;BME280;7976;52.526;13.326;2023-05-01T03:51:59;101527.22;;;8.94;63.49
15750;BME280;7976;52.526;13.326;2023-05-01T03:54:26;101530.66;;;8.96;63.03
15750;BME280;7976;52.526;13.326;2023-05-01T03:56:57;101531.47;;;9.00;63.38
15750;BME280;7976;52.526;13.326;2023-05-01T03:59:26;101524.53;;;8.99;63.10
15750;BME280;7976;52.526;13.326;2023-05-01T04:01:53;101527.97;;;9.01;63.46
15750;BME280;7976;52.526;13.326;2023-05-01T04:04:20;101520.97;;;9.04;63.38
15750;BME280;7976;52.526;13.326;2023-05-01T04:06:54;101519.16;;;9.06;63.06
15750;BME280;7976;52.526;13.326;2023-05-01T04:09:21;101524.38;;;9.06;62.79
15750;BME280;7976;52.526;13.326;2023-05-01T04:11:48;101520.94;;;9.06;63.03
15750;BME280;7976;52.526;13.326;2023-05-01T04:14:15;101525.28;;;9.05;62.79
15750;BME280;7976;52.526;13.326;2023-05-01T04:16:43;101518.34;;;9.03;62.80
15750;BME280;7976;52.526;13.326;2023-05-01T04:19:10;101523.66;;;8.98;63.13
15750;BME280;7976;52.526;13.326;2023-05-01T04:21:41;101519.38;;;8.96;62.85
15750;BME280;7976;52.526;13.326;2023-05-01T04:24:08;101518.50;;;8.95;63.26
15750;BME280;7976;52.526;13.326;2023-05-01T04:26:35;101515.00;;;8.96;63.12
15750;BME280;7976;52.526;13.326;2023-05-01T04:29:03;101520.22;;;8.96;62.66
15750;BME280;7976;52.526;13.326;2023-05-01T04:31:30;101517.56;;;8.98;62.79
15750;BME280;7976;52.526;13.326;2023-05-01T04:33:58;101516.59;;;9.03;63.01
15750;BME280;7976;52.526;13.326;2023-05-01T04:36:25;101514.91;;;9.02;62.82
15750;BME280;7976;52.526;13.326;2023-05-01T04:38:52;101506.19;;;9.02;62.90
15750;BME280;7976;52.526;13.326;2023-05-01T04:41:19;101512.28;;;9.02;62.40
15750;BME280;7976;52.526;13.326;2023-05-01T04:43:46;101509.63;;;9.05;62.53
15750;BME280;7976;52.526;13.326;2023-05-01T04:46:16;101499.19;;;9.05;62.33
15750;BME280;7976;52.526;13.326;2023-05-01T04:48:43;101502.59;;;9.09;62.34
15750;BME280;7976;52.526;13.326;2023-05-01T04:51:11;101506.00;;;9.12;62.22
15750;BME280;7976;52.526;13.326;2023-05-01T04:53:38;101497.22;;;9.16;62.07
15750;BME280;7976;52.526;13.326;2023-05-01T04:56:14;101497.94;;;9.24;61.83
15750;BME280;7976;52.526;13.326;2023-05-01T04:58:42;101503.16;;;9.24;61.75
15750;BME280;7976;52.526;13.326;2023-05-01T05:01:13;101494.47;;;9.24;61.55
15750;BME280;7976;52.526;13.326;2023-05-01T05:03:40;101492.66;;;9.27;61.09
15750;BME280;7976;52.526;13.326;2023-05-01T05:06:10;101496.97;;;9.28;61.03
15750;BME280;7976;52.526;13.326;2023-05-01T05:08:37;101496.91;;;9.31;60.63
15750;BME280;7976;52.526;13.326;2023-05-01T05:11:08;101485.59;;;9.32;59.87
15750;BME280;7976;52.526;13.326;2023-05-01T05:14:04;101503.81;;;9.35;59.87
15750;BME280;7976;52.526;13.326;2023-05-01T05:16:32;101498.56;;;9.37;60.05
15750;BME280;7976;52.526;13.326;2023-05-01T05:18:59;101495.88;;;9.40;60.04
15750;BME280;7976;52.526;13.326;2023-05-01T05:21:29;101494.06;;;9.43;59.67
15750;BME280;7976;52.526;13.326;2023-05-01T05:23:57;101488.81;;;9.45;59.46
15750;BME280;7976;52.526;13.326;2023-05-01T05:26:24;101482.75;;;9.44;59.55
15750;BME280;7976;52.526;13.326;2023-05-01T05:28:52;101476.63;;;9.45;59.34
15750;BME280;7976;52.526;13.326;2023-05-01T05:31:19;101482.59;;;9.50;59.56
15750;BME280;7976;52.526;13.326;2023-05-01T05:33:46;101482.47;;;9.56;59.55
15750;BME280;7976;52.526;13.326;2023-05-01T05:36:14;101481.47;;;9.62;59.23
15750;BME280;7976;52.526;13.326;2023-05-01T05:38:43;101463.06;;;9.66;59.20
15750;BME280;7976;52.526;13.326;2023-05-01T05:41:15;101466.44;;;9.71;59.18
15750;BME280;7976;52.526;13.326;2023-05-01T05:43:42;101466.38;;;9.76;58.76
15750;BME280;7976;52.526;13.326;2023-05-01T05:46:09;101459.28;;;9.81;58.53
15750;BME280;7976;52.526;13.326;2023-05-01T05:48:37;101466.16;;;9.85;58.74
15750;BME280;7976;52.526;13.326;2023-05-01T05:51:04;101465.13;;;9.92;58.56
15750;BME280;7976;52.526;13.326;2023-05-01T05:53:31;101455.50;;;9.94;58.20
15750;BME280;7976;52.526;13.326;2023-05-01T05:56:00;101456.25;;;9.99;57.74
15750;BME280;7976;52.526;13.326;2023-05-01T05:58:30;101460.41;;;10.09;57.53
15750;BME280;7976;52.526;13.326;2023-05-01T06:00:56;101452.41;;;10.15;57.47
15750;BME280;7976;52.526;13.326;2023-05-01T06:03:23;101450.63;;;10.17;57.29
15750;BME280;7976;52.526;13.326;2023-05-01T06:05:55;101456.56;;;10.24;57.34
15750;BME280;7976;52.526;13.326;2023-05-01T06:08:22;101452.06;;;10.29;57.11
15750;BME280;7976;52.526;13.326;2023-05-01T06:10:49;101451.19;;;10.30;56.95
15750;BME280;7976;52.526;13.326;2023-05-01T06:13:17;101446.66;;;10.36;56.54
15750;BME280;7976;52.526;13.326;2023-05-01T06:15:47;101451.59;;;10.47;56.69
15750;BME280;7976;52.526;13.326;2023-05-01T06:18:14;101445.25;;;10.57;56.52
15750;BME280;7976;52.526;13.326;2023-05-01T06:20:41;101450.25;;;10.66;56.20
15750;BME280;7976;52.526;13.326;2023-05-01T06:23:08;101449.13;;;10.76;56.15
15750;BME280;7976;52.526;13.326;2023-05-01T06:25:42;101451.41;;;10.88;55.61
15750;BME280;7976;52.526;13.326;2023-05-01T06:28:09;101449.44;;;10.96;55.33
15750;BME280;7976;52.526;13.326;2023-05-01T06:30:37;101452.66;;;11.05;54.94
15750;BME280;7976;52.526;13.326;2023-05-01T06:33:04;101448.84;;;11.17;54.82
15750;BME280;7976;52.526;13.326;2023-05-01T06:35:32;101453.78;;;11.27;54.12
15750;BME280;7976;52.526;13.326;2023-05-01T06:37:59;101453.47;;;11.38;54.08
15750;BME280;7976;52.526;13.326;2023-05-01T06:40:26;101448.78;;;11.49;53.86
15750;BME280;7976;52.526;13.326;2023-05-01T06:42:53;101444.88;;;11.62;53.81
15750;BME280;7976;52.526;13.326;2023-05-01T06:45:27;101441.91;;;11.74;53.34
15750;BME280;7976;52.526;13.326;2023-05-01T06:47:55;101436.34;;;11.85;53.18
15750;BME280;7976;52.526;13.326;2023-05-01T06:50:22;101442.97;;;11.96;53.10
15750;BME280;7976;52.526;13.326;2023-05-01T06:52:49;101435.63;;;12.07;53.32
15750;BME280;7976;52.526;13.326;2023-05-01T06:55:16;101436.16;;;12.18;52.89
15750;BME280;7976;52.526;13.326;2023-05-01T06:57:42;101441.78;;;12.32;52.68
15750;BME280;7976;52.526;13.326;2023-05-01T07:00:12;101434.31;;;12.46;52.30
15750;BME280;7976;52.526;13.326;2023-05-01T07:02:40;101436.47;;;12.60;52.27
15750;BME280;7976;52.526;13.326;2023-05-01T07:05:08;101439.63;;;12.70;52.00
15750;BME280;7976;52.526;13.326;2023-05-01T07:07:37;101432.41;;;12.76;51.45
15750;BME280;7976;52.526;13.326;2023-05-01T07:10:05;101435.53;;;12.87;51.21
15750;BME280;7976;52.526;13.326;2023-05-01T07:12:32;101436.81;;;13.00;51.01
15750;BME280;7976;52.526;13.326;2023-05-01T07:14:59;101427.66;;;13.12;50.70
15750;BME280;7976;52.526;13.326;2023-05-01T07:17:28;101428.28;;;13.18;50.41
15750;BME280;7976;52.526;13.326;2023-05-01T07:19:54;101422.75;;;13.26;50.42
15750;BME280;7976;52.526;13.326;2023-05-01T07:22:23;101424.25;;;13.33;49.89
15750;BME280;7976;52.526;13.326;2023-05-01T07:24:49;101415.19;;;13.40;49.74
15750;BME280;7976;52.526;13.326;2023-05-01T07:27:16;101409.66;;;13.47;49.33
15750;BME280;7976;52.526;13.326;2023-05-01T07:29:43;101418.97;;;13.56;49.31
15750;BME280;7976;52.526;13.326;2023-05-01T07:32:10;101410.75;;;13.63;49.19
15750;BME280;7976;52.526;13.326;2023-05-01T07:34:37;101406.78;;;13.75;48.86
15750;BME280;7976;52.526;13.326;2023-05-01T07:37:04;101403.69;;;13.87;48.34
15750;BME280;7976;52.526;13.326;2023-05-01T07:39:32;101399.69;;;13.99;48.20
15750;BME280;7976;52.526;13.326;2023-05-01T07:41:59;101400.13;;;14.10;47.90
15750;BME280;7976;52.526;13.326;2023-05-01T07:44:26;101400.91;;;14.12;48.00
15750;BME280;7976;52.526;13.326;2023-05-01T07:46:53;101403.25;;;14.19;47.91
15750;BME280;7976;52.526;13.326;2023-05-01T07:49:19;101396.94;;;14.23;47.29
15750;BME280;7976;52.526;13.326;2023-05-01T07:51:46;101399.34;;;14.29;47.30
15750;BME280;7976;52.526;13.326;2023-05-01T07:54:14;101395.53;;;14.36;47.01
15750;BME280;7976;52.526;13.326;2023-05-01T07:56:42;101389.09;;;14.43;47.00
15750;BME280;7976;52.526;13.326;2023-05-01T07:59:09;101386.78;;;14.56;47.28
15750;BME280;7976;52.526;13.326;2023-05-01T08:01:36;101379.16;;;14.70;47.35
15750;BME280;7976;52.526;13.326;2023-05-01T08:04:04;101383.09;;;14.80;47.11
15750;BME280;7976;52.526;13.326;2023-05-01T08:06:30;101376.47;;;14.90;47.15
15750;BME280;7976;52.526;13.326;2023-05-01T08:08:58;101382.19;;;14.99;47.21
15750;BME280;7976;52.526;13.326;2023-05-01T08:11:25;101376.56;;;15.07;46.61
15750;BME280;7976;52.526;13.326;2023-05-01T08:13:55;101379.81;;;15.14;46.21
15750;BME280;7976;52.526;13.326;2023-05-01T08:16:22;101370.94;;;15.15;46.47
15750;BME280;7976;52.526;13.326;2023-05-01T08:18:48;101361.91;;;15.20;46.33
15750;BME280;7976;52.526;13.326;2023-05-01T08:21:15;101366.66;;;15.31;46.29
15750;BME280;7976;52.526;13.326;2023-05-01T08:23:42;101361.91;;;15.39;45.64
15750;BME280;7976;52.526;13.326;2023-05-01T08:26:09;101354.28;;;15.51;45.35
15750;BME280;7976;52.526;13.326;2023-05-01T08:28:35;101361.78;;;15.60;44.89
15750;BME280;7976;52.526;13.326;2023-05-01T08:31:04;101359.72;;;15.67;44.73
15750;BME280;7976;52.526;13.326;2023-05-01T08:33:31;101350.50;;;15.75;44.27
15750;BME280;7976;52.526;13.326;2023-05-01T08:36:01;101352.75;;;15.83;43.86
15750;BME280;7976;52.526;13.326;2023-05-01T08:38:28;101354.78;;;15.95;43.34
15750;BME280;7976;52.526;13.326;2023-05-01T08:40:55;101345.63;;;16.02;43.12
15750;BME280;7976;52.526;13.326;2023-05-01T08:43:24;101348.59;;;16.13;43.28
15750;BME280;7976;52.526;13.326;2023-05-01T08:45:55;101355.34;;;16.18;43.25
15750;BME280;7976;52.526;13.326;2023-05-01T08:48:28;101347.28;;;16.21;43.07
15750;BME280;7976;52.526;13.326;2023-05-01T08:50:56;101336.47;;;16.26;43.04
15750;BME280;7976;52.526;13.326;2023-05-01T08:53:25;101338.81;;;16.32;42.56
15750;BME280;7976;52.526;13.326;2023-05-01T08:55:54;101337.66;;;16.38;42.40
15750;BME280;7976;52.526;13.326;2023-05-01T08:58:24;101336.78;;;16.37;41.92
15750;BME280;7976;52.526;13.326;2023-05-01T09:00:53;101326.22;;;16.37;41.94
15750;BME280;7976;52.526;13.326;2023-05-01T09:03:21;101323.56;;;16.37;41.49
15750;BME280;7976;52.526;13.326;2023-05-01T09:05:51;101323.50;;;16.39;41.36
15750;BME280;7976;52.526;13.326;2023-05-01T09:08:18;101310.91;;;16.44;41.64
15750;BME280;7976;52.526;13.326;2023-05-01T09:10:48;101314.19;;;16.49;41.24
15750;BME280;7976;52.526;13.326;2023-05-01T09:13:18;101308.81;;;16.50;41.12
15750;BME280;7976;52.526;13.326;2023-05-01T09:15:45;101309.69;;;16.51;41.16
15750;BME280;7976;52.526;13.326;2023-05-01T09:18:12;101301.50;;;16.55;40.95
15750;BME280;7976;52.526;13.326;2023-05-01T09:20:39;101294.78;;;16.65;40.93
15750;BME280;7976;52.526;13.326;2023-05-01T09:23:08;101294.16;;;16.77;41.11
15750;BME280;7976;52.526;13.326;2023-05-01T09:25:35;101289.91;;;16.90;40.89
15750;BME280;7976;52.526;13.326;2023-05-01T09:28:04;101291.88;;;17.02;41.23
15750;BME280;7976;52.526;13.326;2023-05-01T09:30:34;101280.72;;;17.13;41.08
15750;BME280;7976;52.526;13.326;2023-05-01T09:33:09;101286.25;;;17.24;40.10
15750;BME280;7976;52.526;13.326;2023-05-01T09:35:51;101284.72;;;17.35;40.26
15750;BME280;7976;52.526;13.326;2023-05-01T09:38:22;101278.13;;;17.42;39.51
15750;BME280;7976;52.526;13.326;2023-05-01T09:40:50;101269.09;;;17.46;39.50
15750;BME280;7976;52.526;13.326;2023-05-01T09:43:25;101263.47;;;17.52;38.90
15750;BME280;7976;52.526;13.326;2023-05-01T09:46:03;101256.81;;;17.61;39.46
15750;BME280;7976;52.526;13.326;2023-05-01T09:48:31;101266.84;;;17.70;39.01
15750;BME280;7976;52.526;13.326;2023-05-01T09:50:58;101263.28;;;17.71;39.06
15750;BME280;7976;52.526;13.326;2023-05-01T09:53:39;101252.78;;;17.70;39.26
15750;BME280;7976;52.526;13.326;2023-05-01T09:56:06;101253.78;;;17.67;39.17
15750;BME280;7976;52.526;13.326;2023-05-01T09:58:34;101252.91;;;17.67;38.49
15750;BME280;7976;52.526;13.326;2023-05-01T10:01:01;101243.59;;;17.75;39.13
15750;BME280;7976;52.526;13.326;2023-05-01T10:03:29;101243.25;;;17.81;39.27
15750;BME280;7976;52.526;13.326;2023-05-01T10:05:57;101243.56;;;17.91;39.84
15750;BME280;7976;52.526;13.326;2023-05-01T10:08:26;101233.25;;;18.00;39.46
15750;BME280;7976;52.526;13.326;2023-05-01T10:11:10;101240.56;;;18.11;39.45
15750;BME280;7976;52.526;13.326;2023-05-01T10:13:37;101229.22;;;18.23;39.35
15750;BME280;7976;52.526;13.326;2023-05-01T10:16:05;101227.53;;;18.22;38.39
15750;BME280;7976;52.526;13.326;2023-05-01T10:18:34;101215.78;;;18.26;38.66
15750;BME280;7976;52.526;13.326;2023-05-01T10:21:02;101220.22;;;18.25;38.76
15750;BME280;7976;52.526;13.326;2023-05-01T10:23:29;101213.22;;;18.24;39.27
15750;BME280;7976;52.526;13.326;2023-05-01T10:25:56;101215.59;;;18.29;39.32
15750;BME280;7976;52.526;13.326;2023-05-01T10:28:26;101210.28;;;18.29;39.47
15750;BME280;7976;52.526;13.326;2023-05-01T10:30:56;101208.41;;;18.31;39.80
15750;BME280;7976;52.526;13.326;2023-05-01T10:33:24;101208.22;;;18.34;39.56
15750;BME280;7976;52.526;13.326;2023-05-01T10:35:56;101203.69;;;18.36;39.27
15750;BME280;7976;52.526;13.326;2023-05-01T10:38:32;101205.13;;;18.41;39.65
15750;BME280;7976;52.526;13.326;2023-05-01T10:40:59;101193.66;;;18.41;39.03
15750;BME280;7976;52.526;13.326;2023-05-01T10:43:29;101182.47;;;18.36;39.18
15750;BME280;7976;52.526;13.326;2023-05-01T10:46:26;101170.69;;;18.41;39.53
15750;BME280;7976;52.526;13.326;2023-05-01T10:48:58;101174.56;;;18.50;39.73
15750;BME280;7976;52.526;13.326;2023-05-01T10:51:26;101170.56;;;18.57;39.47
15750;BME280;7976;52.526;13.326;2023-05-01T10:54:21;101163.91;;;18.64;39.43
15750;BME280;7976;52.526;13.326;2023-05-01T10:56:49;101161.09;;;18.67;39.09
15750;BME280;7976;52.526;13.326;2023-05-01T10:59:17;101164.28;;;18.72;39.03
15750;BME280;7976;52.526;13.326;2023-05-01T11:01:45;101151.19;;;18.83;39.54
15750;BME280;7976;52.526;13.326;2023-05-01T11:04:47;101157.19;;;18.99;39.40
15750;BME280;7976;52.526;13.326;2023-05-01T11:07:17;101149.59;;;19.07;38.53
15750;BME280;7976;52.526;13.326;2023-05-01T11:09:46;101154.59;;;19.12;38.17
15750;BME280;7976;52.526;13.326;2023-05-01T11:12:15;101149.19;;;19.13;38.58
15750;BME280;7976;52.526;13.326;2023-05-01T11:15:05;101146.19;;;19.05;39.17
15750;BME280;7976;52.526;13.326;2023-05-01T11:17:44;101123.53;;;18.87;39.07
15750;BME280;7976;52.526;13.326;2023-05-01T11:20:13;101130.94;;;18.68;39.00
15750;BME280;7976;52.526;13.326;2023-05-01T11:23:01;101128.53;;;18.51;39.70
15750;BME280;7976;52.526;13.326;2023-05-01T11:25:29;101116.81;;;18.41;39.52
15750;BME280;7976;52.526;13.326;2023-05-01T11:28:02;101110.56;;;18.42;39.96
15750;BME280;7976;52.526;13.326;2023-05-01T11:30:36;101106.44;;;18.50;39.66
15750;BME280;7976;52.526;13.326;2023-05-01T11:33:03;101092.25;;;18.51;38.85
15750;BME280;7976;52.526;13.326;2023-05-01T11:35:31;101101.06;;;18.52;39.15
15750;BME280;7976;52.526;13.326;2023-05-01T11:37:58;101106.06;;;18.56;39.05
15750;BME280;7976;52.526;13.326;2023-05-01T11:40:29;101091.84;;;18.57;38.93
15750;BME280;7976;52.526;13.326;2023-05-01T11:43:01;101073.19;;;18.59;38.78
15750;BME280;7976;52.526;13.326;2023-05-01T11:45:29;101084.97;;;18.82;38.47
15750;BME280;7976;52.526;13.326;2023-05-01T11:47:56;101085.50;;;19.13;38.47
15750;BME280;7976;52.526;13.326;2023-05-01T11:50:31;101082.38;;;19.33;37.24
15750;BME280;7976;52.526;13.326;2023-05-01T11:53:00;101074.22;;;19.49;37.49
15750;BME280;7976;52.526;13.326;2023-05-01T11:55:33;101080.50;;;19.60;37.31
15750;BME280;7976;52.526;13.326;2023-05-01T11:58:01;101079.44;;;19.75;37.76
15750;BME280;7976;52.526;13.326;2023-05-01T12:00:31;101072.41;;;19.87;38.01
15750;BME280;7976;52.526;13.326;2023-05-01T12:03:04;101056.03;;;19.93;37.39
15750;BME280;7976;52.526;13.326;2023-05-01T12:05:33;101054.44;;;19.90;36.46
15750;BME280;7976;52.526;13.326;2023-05-01T12:08:10;101057.41;;;19.86;36.32
15750;BME280;7976;52.526;13.326;2023-05-01T12:10:41;101054.97;;;19.83;36.76
15750;BME280;7976;52.526;13.326;2023-05-01T12:13:10;101052.94;;;19.86;37.27
15750;BME280;7976;52.526;13.326;2023-05-01T12:15:40;101055.81;;;19.83;37.53
15750;BME280;7976;52.526;13.326;2023-05-01T12:18:08;101040.22;;;19.79;37.48
15750;BME280;7976;52.526;13.326;2023-05-01T12:20:38;101043.94;;;19.76;36.98
15750;BME280;7976;52.526;13.326;2023-05-01T12:23:07;101037.44;;;19.80;37.02
15750;BME280;7976;52.526;13.326;2023-05-01T12:25:38;101030.94;;;19.84;37.51
15750;BME280;7976;52.526;13.326;2023-05-01T12:28:10;101026.25;;;19.88;37.20
15750;BME280;7976;52.526;13.326;2023-05-01T12:30:38;101030.19;;;19.95;36.95
15750;BME280;7976;52.526;13.326;2023-05-01T12:33:11;101028.16;;;19.98;37.04
15750;BME280;7976;52.526;13.326;2023-05-01T12:35:39;101030.72;;;20.00;37.38
15750;BME280;7976;52.526;13.326;2023-05-01T12:38:14;101015.75;;;19.99;36.76
15750;BME280;7976;52.526;13.326;2023-05-01T12:40:51;101018.94;;;19.91;36.89
15750;BME280;7976;52.526;13.326;2023-05-01T12:43:20;101006.84;;;19.87;37.25
15750;BME280;7976;52.526;13.326;2023-05-01T12:45:51;101012.69;;;19.92;37.23
15750;BME280;7976;52.526;13.326;2023-05-01T12:48:19;100998.94;;;19.98;37.16
15750;BME280;7976;52.526;13.326;2023-05-01T12:50:46;100993.50;;;20.13;37.00
15750;BME280;7976;52.526;13.326;2023-05-01T12:53:19;100995.38;;;20.23;37.30
15750;BME280;7976;52.526;13.326;2023-05-01T12:55:50;100993.13;;;20.30;37.26
15750;BME280;7976;52.526;13.326;2023-05-01T12:58:18;100991.34;;;20.41;36.89
15750;BME280;7976;52.526;13.326;2023-05-01T13:00:47;100988.88;;;20.51;36.78
15750;BME280;7976;52.526;13.326;2023-05-01T13:03:23;100987.91;;;20.52;35.93
15750;BME280;7976;52.526;13.326;2023-05-01T13:05:55;100989.31;;;20.45;36.12
15750;BME280;7976;52.526;13.326;2023-05-01T13:08:29;100989.31;;;20.45;36.61